Time;durP1;ratioP1;P1;durP2;ratioP2;P2;SDS_P1;SDS_P2;PMS_P1;PMS_P2;Temp;Humidity;BMP_temperature;BMP_pressure;BME280_temperature;BME280_humidity;BME280_pressure;Samples;Min_cycle;Max_cycle;Signal;HPM_P1;HPM_P2
2021/10/24 00:02:10;;;;;;;0.65;0.65;;;;;;;5.29;94.30;102243.66;5054029;28;20186;-72
2021/10/24 00:04:37;;;;;;;0.70;0.60;;;;;;;5.32;93.61;102236.78;5053826;28;20635;-72
2021/10/24 00:07:04;;;;;;;0.70;0.60;;;;;;;5.29;94.04;102238.50;5069375;28;20464;-72
2021/10/24 00:09:33;;;;;;;0.60;0.50;;;;;;;5.21;94.22;102248.84;5069080;28;20959;-72
2021/10/24 00:12:00;;;;;;;0.60;0.60;;;;;;;5.26;93.71;102238.53;5054636;28;20455;-72
2021/10/24 00:14:27;;;;;;;1.55;1.45;;;;;;;5.31;93.05;102237.63;5054570;28;20408;-72
2021/10/24 00:16:55;;;;;;;0.60;0.60;;;;;;;5.39;93.63;102235.06;5070072;28;20243;-72
2021/10/24 00:19:23;;;;;;;0.70;0.70;;;;;;;5.35;93.35;102235.91;5085771;28;20444;-72
2021/10/24 00:21:50;;;;;;;0.60;0.60;;;;;;;5.31;93.16;102239.38;5052604;28;20247;-72
2021/10/24 00:24:17;;;;;;;0.60;0.50;;;;;;;5.22;93.37;102244.53;5067562;28;20531;-72
2021/10/24 00:26:46;;;;;;;0.60;0.60;;;;;;;5.15;93.60;102241.16;5051406;28;20650;-72
2021/10/24 00:29:12;;;;;;;0.60;0.60;;;;;;;5.09;93.66;102244.59;5067704;28;20224;-72
2021/10/24 00:31:40;;;;;;;0.70;0.70;;;;;;;5.08;93.62;102240.31;5066629;28;20275;-72
2021/10/24 00:34:09;;;;;;;0.60;0.60;;;;;;;5.15;93.75;102241.16;5085212;28;20435;-72
2021/10/24 00:36:42;;;;;;;0.60;0.60;;;;;;;5.03;93.88;102241.22;5084870;28;20928;-72
2021/10/24 00:39:20;;;;;;;0.80;0.80;;;;;;;4.97;93.29;102238.66;5034141;28;20544;-72
2021/10/24 00:42:00;;;;;;;0.70;0.70;;;;;;;4.79;94.29;102232.72;5072561;28;20192;-72
2021/10/24 00:44:35;;;;;;;0.60;0.60;;;;;;;4.88;94.42;102235.25;5084294;28;20227;-72
2021/10/24 00:47:10;;;;;;;0.60;0.50;;;;;;;4.89;94.95;102234.38;5085249;28;20190;-72
2021/10/24 00:49:42;;;;;;;0.60;0.60;;;;;;;4.86;94.76;102236.97;5085615;28;20251;-72
2021/10/24 00:52:16;;;;;;;0.60;0.60;;;;;;;4.84;94.76;102230.97;5068598;28;20682;-72
2021/10/24 00:55:08;;;;;;;0.70;0.60;;;;;;;4.81;94.95;102225.84;5066674;28;20216;-72
2021/10/24 00:57:39;;;;;;;0.60;0.60;;;;;;;4.75;95.21;102227.56;5054219;28;20174;-72
2021/10/24 01:00:12;;;;;;;0.60;0.60;;;;;;;4.62;95.35;102221.63;5051947;28;20284;-71
2021/10/24 01:02:43;;;;;;;0.60;0.60;;;;;;;4.54;96.41;102220.78;5051931;28;20439;-71
2021/10/24 01:05:19;;;;;;;0.65;0.60;;;;;;;4.45;96.57;102224.22;5084397;28;20704;-71
2021/10/24 01:07:51;;;;;;;0.73;0.73;;;;;;;4.55;96.30;102214.78;5085249;28;20209;-71
2021/10/24 01:10:27;;;;;;;0.63;0.60;;;;;;;4.48;96.06;102217.38;5067420;28;20186;-71
2021/10/24 01:13:04;;;;;;;0.70;0.70;;;;;;;4.49;95.91;102208.78;5085356;28;20708;-71
2021/10/24 01:15:44;;;;;;;0.60;0.60;;;;;;;4.51;96.57;102208.78;5068642;28;20239;-71
2021/10/24 01:18:21;;;;;;;1.00;1.00;;;;;;;4.36;96.67;102207.09;5083537;28;20255;-71
2021/10/24 01:20:54;;;;;;;0.60;0.60;;;;;;;4.22;96.96;102214.81;5068314;28;20201;-71
2021/10/24 01:23:27;;;;;;;0.60;0.50;;;;;;;4.10;96.50;102208.84;5051275;28;20202;-73
2021/10/24 01:25:59;;;;;;;0.60;0.50;;;;;;;3.98;97.19;102202.84;5066226;28;20182;-73
2021/10/24 01:28:36;;;;;;;0.60;0.57;;;;;;;3.91;97.63;102202.84;5083826;28;20193;-71
2021/10/24 01:31:12;;;;;;;0.60;0.60;;;;;;;3.69;97.83;102195.13;5053051;28;20673;-72
2021/10/24 01:33:49;;;;;;;0.60;0.60;;;;;;;3.86;98.82;102196.00;5050730;28;20241;-72
2021/10/24 01:36:28;;;;;;;0.70;0.68;;;;;;;3.90;98.66;102191.72;5051408;28;20204;-72
2021/10/24 01:39:01;;;;;;;0.60;0.60;;;;;;;3.88;98.91;102187.44;5050729;28;20711;-72
2021/10/24 01:41:31;;;;;;;0.60;0.60;;;;;;;3.97;99.52;102185.72;5051765;28;20201;-72
2021/10/24 01:44:02;;;;;;;0.60;0.60;;;;;;;4.11;98.43;102172.00;5068673;28;20225;-72
2021/10/24 01:46:31;;;;;;;0.60;0.52;;;;;;;4.17;97.81;102183.16;5067866;28;20193;-73
2021/10/24 01:48:58;;;;;;;0.60;0.60;;;;;;;4.13;97.59;102172.88;5084640;28;20542;-73
2021/10/24 01:51:28;;;;;;;0.60;0.60;;;;;;;4.16;97.83;102165.16;5069867;28;20186;-73
2021/10/24 01:53:55;;;;;;;0.60;0.50;;;;;;;4.24;97.28;102166.88;5053120;28;20205;-72
2021/10/24 01:56:23;;;;;;;0.60;0.60;;;;;;;4.41;96.26;102158.22;5051124;28;20193;-73
2021/10/24 01:58:52;;;;;;;0.70;0.70;;;;;;;4.28;95.09;102154.84;5067943;28;20650;-73
2021/10/24 02:01:21;;;;;;;0.60;0.60;;;;;;;4.23;96.19;102156.56;5051624;28;20202;-73
2021/10/24 02:04:12;;;;;;;1.67;0.80;;;;;;;4.16;96.63;102154.88;5053741;28;20201;-72
2021/10/24 02:06:49;;;;;;;0.60;0.50;;;;;;;4.04;96.28;102158.31;5067671;28;20220;-73
2021/10/24 02:09:18;;;;;;;0.60;0.60;;;;;;;4.03;95.95;102154.88;5051553;28;20550;-73
2021/10/24 02:11:47;;;;;;;0.63;0.60;;;;;;;4.04;96.12;102148.03;5068439;28;20657;-73
2021/10/24 02:14:14;;;;;;;0.60;0.60;;;;;;;4.00;97.69;102151.47;5068739;28;20244;-72
2021/10/24 02:16:44;;;;;;;0.60;0.60;;;;;;;3.97;96.72;102146.31;5067004;28;20193;-73
2021/10/24 02:19:12;;;;;;;0.60;0.55;;;;;;;3.85;97.14;102152.34;5051135;28;20189;-73
2021/10/24 02:21:39;;;;;;;0.60;0.60;;;;;;;3.87;97.62;102150.59;5085126;28;20189;-72
2021/10/24 02:24:08;;;;;;;0.60;0.60;;;;;;;3.89;97.97;102148.91;5085070;28;20259;-73
2021/10/24 02:26:35;;;;;;;0.60;0.60;;;;;;;3.92;97.51;102146.34;5068403;28;20225;-73
2021/10/24 02:29:02;;;;;;;0.60;0.60;;;;;;;3.95;97.75;102143.78;5084715;28;20201;-73
2021/10/24 02:31:30;;;;;;;0.65;0.60;;;;;;;3.97;97.43;102131.78;5051192;28;20676;-72
2021/10/24 02:34:15;;;;;;;0.60;0.60;;;;;;;3.89;97.89;102133.50;5051571;28;20199;-72
2021/10/24 02:36:54;;;;;;;0.60;0.50;;;;;;;3.77;98.11;102134.38;5082997;28;20190;-73
2021/10/24 02:39:22;;;;;;;0.68;0.68;;;;;;;3.87;97.64;102130.06;5051239;28;20690;-72
2021/10/24 02:41:50;;;;;;;0.60;0.60;;;;;;;3.90;97.76;102124.94;5051342;28;20280;-72
2021/10/24 02:44:17;;;;;;;0.60;0.60;;;;;;;3.91;97.92;102125.78;5068033;28;20292;-72
2021/10/24 02:46:48;;;;;;;0.70;0.70;;;;;;;3.96;97.18;102117.22;5050681;28;21042;-73
2021/10/24 02:49:17;;;;;;;0.60;0.60;;;;;;;4.10;95.94;102121.50;5067785;28;20194;-73
2021/10/24 02:51:50;;;;;;;0.60;0.50;;;;;;;4.09;95.54;102120.63;5051186;28;20534;-73
2021/10/24 02:54:18;;;;;;;0.60;0.60;;;;;;;4.14;95.53;102120.59;5067517;28;20408;-73
2021/10/24 02:56:47;;;;;;;0.60;0.50;;;;;;;4.14;95.24;102118.03;5067942;28;20251;-73
2021/10/24 02:59:17;;;;;;;0.60;0.60;;;;;;;4.04;96.49;102109.50;5068108;28;20189;-73
2021/10/24 03:01:46;;;;;;;0.60;0.60;;;;;;;4.09;96.38;102112.91;5068082;28;20205;-73
2021/10/24 03:04:13;;;;;;;1.00;0.90;;;;;;;4.11;96.07;102100.06;5049523;28;20194;-73
2021/10/24 03:06:45;;;;;;;0.60;0.60;;;;;;;4.18;95.75;102107.75;5083930;28;20202;-73
2021/10/24 03:09:12;;;;;;;0.60;0.60;;;;;;;4.20;95.43;102102.63;5053889;28;20221;-73
2021/10/24 03:11:39;;;;;;;0.60;0.60;;;;;;;4.17;95.29;102098.34;5087403;28;20194;-73
2021/10/24 03:14:09;;;;;;;0.60;0.60;;;;;;;4.13;96.74;102091.50;5070638;28;20588;-73
2021/10/24 03:16:37;;;;;;;0.60;0.55;;;;;;;4.05;96.41;102091.53;5054379;28;20189;-72
2021/10/24 03:19:04;;;;;;;0.60;0.50;;;;;;;4.23;95.40;102087.19;5071119;28;20185;-72
2021/10/24 03:21:32;;;;;;;0.60;0.60;;;;;;;4.26;95.96;102088.06;5071236;28;20189;-73
2021/10/24 03:24:04;;;;;;;0.60;0.60;;;;;;;4.24;95.37;102084.63;5067637;28;20217;-73
2021/10/24 03:26:31;;;;;;;0.63;0.60;;;;;;;4.30;95.77;102083.75;5066983;28;20218;-73
2021/10/24 03:28:59;;;;;;;0.60;0.50;;;;;;;4.24;95.89;102083.78;5052623;28;20247;-73
2021/10/24 03:31:28;;;;;;;0.60;0.60;;;;;;;4.26;95.07;102082.03;5070295;28;20251;-73
2021/10/24 03:33:57;;;;;;;0.60;0.60;;;;;;;4.30;96.19;102083.75;5055179;28;20236;-73
2021/10/24 03:36:24;;;;;;;0.60;0.60;;;;;;;4.23;95.07;102079.47;5054120;28;20281;-73
2021/10/24 03:38:52;;;;;;;0.70;0.70;;;;;;;4.21;95.23;102083.75;5071076;28;20267;-73
2021/10/24 03:41:19;;;;;;;0.60;0.60;;;;;;;4.24;95.55;102081.22;5053765;28;20209;-73
2021/10/24 03:43:46;;;;;;;0.70;0.60;;;;;;;4.20;95.17;102071.78;5086835;28;20202;-73
2021/10/24 03:46:15;;;;;;;0.60;0.60;;;;;;;4.15;96.18;102071.78;5087225;28;20221;-73
2021/10/24 03:48:44;;;;;;;0.60;0.60;;;;;;;4.11;95.10;102074.38;5070106;28;20193;-73
2021/10/24 03:51:11;;;;;;;0.60;0.60;;;;;;;4.20;95.69;102070.06;5053874;28;20201;-73
2021/10/24 03:53:38;;;;;;;0.60;0.60;;;;;;;4.21;95.08;102073.47;5070340;28;20213;-73
2021/10/24 03:56:05;;;;;;;0.60;0.60;;;;;;;4.15;94.89;102070.94;5087213;28;20196;-73
2021/10/24 03:58:39;;;;;;;0.60;0.60;;;;;;;4.13;95.43;102067.53;5066210;28;20190;-73
2021/10/24 04:01:06;;;;;;;0.60;0.50;;;;;;;4.07;95.34;102069.25;5048369;28;20205;-73
2021/10/24 04:03:35;;;;;;;0.70;0.60;;;;;;;4.12;96.37;102076.09;5053189;28;20588;-73
2021/10/24 04:06:05;;;;;;;0.60;0.60;;;;;;;4.18;96.28;102070.94;5086236;28;20593;-73
2021/10/24 04:08:32;;;;;;;1.33;1.23;;;;;;;4.08;95.64;102070.09;5066222;28;20773;-73
2021/10/24 04:11:00;;;;;;;0.60;0.60;;;;;;;4.19;95.68;102070.94;5047530;28;20201;-73
2021/10/24 04:13:27;;;;;;;0.60;0.50;;;;;;;4.19;95.36;102064.91;5070251;28;20218;-73
2021/10/24 04:15:57;;;;;;;0.70;0.70;;;;;;;4.22;96.19;102060.66;5086338;28;20565;-73
2021/10/24 04:18:42;;;;;;;0.60;0.60;;;;;;;4.26;95.54;102061.47;5053326;28;20660;-73
2021/10/24 04:21:10;;;;;;;0.60;0.60;;;;;;;4.24;95.51;102058.94;5068521;28;20271;-73
2021/10/24 04:23:39;;;;;;;0.60;0.50;;;;;;;4.26;95.84;102054.66;5086996;28;20217;-73
2021/10/24 04:26:06;;;;;;;0.60;0.60;;;;;;;4.30;95.37;102052.91;5053565;28;20243;-73
2021/10/24 04:28:34;;;;;;;0.60;0.60;;;;;;;4.23;95.80;102048.63;5086487;28;20654;-73
2021/10/24 04:31:02;;;;;;;0.60;0.50;;;;;;;4.22;95.95;102050.38;5086750;28;20209;-73
2021/10/24 04:33:30;;;;;;;0.63;0.60;;;;;;;4.20;95.83;102041.81;5085820;28;20213;-73
2021/10/24 04:35:57;;;;;;;0.60;0.50;;;;;;;4.16;95.45;102036.69;5051758;28;20181;-73
2021/10/24 04:38:29;;;;;;;0.60;0.60;;;;;;;4.14;95.94;102036.69;5069197;28;20621;-73
2021/10/24 04:40:57;;;;;;;0.70;0.70;;;;;;;4.16;95.19;102027.25;5069631;28;20545;-73
2021/10/24 04:43:24;;;;;;;0.60;0.60;;;;;;;4.06;95.62;102031.56;5052868;28;20255;-72
2021/10/24 04:45:51;;;;;;;0.60;0.60;;;;;;;4.01;95.47;102025.59;5052745;28;20185;-73
2021/10/24 04:48:22;;;;;;;0.60;0.55;;;;;;;3.97;96.10;102025.59;5069123;28;20204;-73
2021/10/24 04:50:49;;;;;;;0.60;0.60;;;;;;;3.98;96.66;102029.88;5052211;28;20556;-73
2021/10/24 04:53:17;;;;;;;0.60;0.60;;;;;;;3.95;95.63;102025.63;5052562;28;20264;-73
2021/10/24 04:55:53;;;;;;;0.60;0.60;;;;;;;3.94;95.96;102023.91;5069542;28;20218;-73
2021/10/24 04:58:22;;;;;;;0.60;0.60;;;;;;;4.00;96.85;102018.75;5085661;28;20552;-73
2021/10/24 05:00:50;;;;;;;0.60;0.60;;;;;;;4.07;96.50;102017.88;5068724;28;20198;-73
2021/10/24 05:03:22;;;;;;;0.68;0.60;;;;;;;3.93;95.46;102022.19;5036535;28;20594;-73
2021/10/24 05:05:49;;;;;;;0.60;0.50;;;;;;;3.82;96.26;102018.78;5052248;28;20199;-73
2021/10/24 05:08:17;;;;;;;0.60;0.60;;;;;;;3.70;97.29;102013.69;5051714;28;20669;-73
2021/10/24 05:10:45;;;;;;;0.75;0.75;;;;;;;3.69;96.22;102017.13;5048476;28;20665;-73
2021/10/24 05:13:13;;;;;;;0.60;0.60;;;;;;;3.70;97.41;102008.53;5065796;28;20202;-73
2021/10/24 05:15:41;;;;;;;0.70;0.60;;;;;;;3.72;97.13;102006.84;5079700;28;20276;-73
2021/10/24 05:18:09;;;;;;;0.60;0.60;;;;;;;3.73;97.54;102009.41;5051400;28;20193;-73
2021/10/24 05:20:37;;;;;;;0.60;0.60;;;;;;;3.70;96.67;101995.72;5085640;28;20607;-73
2021/10/24 05:23:05;;;;;;;0.70;0.60;;;;;;;3.64;96.53;102010.28;5084076;28;20220;-73
2021/10/24 05:25:52;;;;;;;0.60;0.60;;;;;;;3.56;97.11;102009.44;5046636;28;20193;-73
2021/10/24 05:28:22;;;;;;;0.60;0.60;;;;;;;3.53;98.63;102006.88;5051483;28;20196;-73
2021/10/24 05:30:50;;;;;;;0.60;0.60;;;;;;;3.68;97.16;102000.88;5051574;28;20204;-73
2021/10/24 05:33:18;;;;;;;0.60;0.60;;;;;;;3.72;97.00;102001.69;5068701;28;20256;-73
2021/10/24 05:36:11;;;;;;;1.02;1.02;;;;;;;3.62;97.86;101994.00;5028994;28;20225;-73
2021/10/24 05:38:38;;;;;;;1.70;1.60;;;;;;;3.63;97.18;102000.88;5085145;28;20615;-73
2021/10/24 05:41:12;;;;;;;0.60;0.60;;;;;;;3.74;97.54;102010.25;5052016;28;20654;-73
2021/10/24 05:43:40;;;;;;;0.70;0.70;;;;;;;3.65;95.81;101996.59;5085971;28;20197;-73
2021/10/24 05:46:09;;;;;;;0.60;0.60;;;;;;;3.60;97.78;101995.75;5047509;28;20658;-73
2021/10/24 05:48:36;;;;;;;0.70;0.60;;;;;;;3.52;96.81;101996.59;5094106;28;20197;-73
2021/10/24 05:51:10;;;;;;;0.60;0.60;;;;;;;3.49;96.56;101997.47;5070843;28;20228;-73
2021/10/24 05:53:39;;;;;;;0.63;0.60;;;;;;;3.45;96.53;101990.63;5067068;28;20209;-73
2021/10/24 05:56:11;;;;;;;0.60;0.60;;;;;;;3.41;97.65;101992.34;5051837;28;20251;-73
2021/10/24 05:58:44;;;;;;;0.60;0.60;;;;;;;3.37;97.49;101995.75;5051834;28;20240;-73
2021/10/24 06:01:30;;;;;;;0.60;0.60;;;;;;;3.37;96.75;101994.91;5053316;28;20180;-73
2021/10/24 06:04:21;;;;;;;0.60;0.50;;;;;;;3.38;97.48;102001.75;5051814;28;20189;-73
2021/10/24 06:06:57;;;;;;;0.70;0.70;;;;;;;3.27;97.82;101991.50;5052389;28;20189;-73
2021/10/24 06:12:12;;;;;;;1.45;1.27;;;;;;;3.27;97.93;101994.06;5051631;28;20193;-73
2021/10/24 06:14:40;;;;;;;0.60;0.55;;;;;;;3.30;97.83;101990.66;5067930;28;20662;-73
2021/10/24 06:17:08;;;;;;;0.60;0.60;;;;;;;3.25;98.17;102000.91;5063607;28;20184;-73
2021/10/24 06:19:35;;;;;;;0.60;0.60;;;;;;;3.33;97.69;101999.22;5048552;28;20320;-73
2021/10/24 06:22:03;;;;;;;0.60;0.60;;;;;;;3.37;98.53;101994.91;5066004;28;20202;-73
2021/10/24 06:24:32;;;;;;;0.60;0.60;;;;;;;3.33;96.75;101999.22;5068520;28;20194;-73
2021/10/24 06:27:00;;;;;;;0.80;0.80;;;;;;;3.28;96.82;101992.34;5051390;28;20217;-73
2021/10/24 06:29:27;;;;;;;0.60;0.50;;;;;;;3.25;97.62;101994.94;5068279;28;20197;-73
2021/10/24 06:31:55;;;;;;;0.60;0.60;;;;;;;3.31;97.73;101995.78;5083883;28;20202;-73
2021/10/24 06:34:48;;;;;;;0.63;0.60;;;;;;;3.37;97.60;101998.34;5029109;28;20226;-73
2021/10/24 06:37:28;;;;;;;0.60;0.60;;;;;;;3.44;97.09;101997.47;5051239;28;20218;-73
2021/10/24 06:40:01;;;;;;;0.60;0.57;;;;;;;3.40;97.78;101989.78;5051252;28;20548;-73
2021/10/24 06:42:28;;;;;;;0.60;0.60;;;;;;;3.48;97.27;101997.47;5069689;28;20190;-73
2021/10/24 06:45:28;;;;;;;0.60;0.60;;;;;;;3.48;97.00;101994.91;5055991;28;20190;-72
2021/10/24 06:48:16;;;;;;;0.60;0.60;;;;;;;3.43;96.68;101994.94;5026858;28;20213;-73
2021/10/24 06:50:56;;;;;;;0.60;0.57;;;;;;;3.37;95.91;102002.63;5068387;28;20194;-73
2021/10/24 06:53:41;;;;;;;0.60;0.60;;;;;;;3.38;97.21;101996.63;5051450;28;20225;-73
2021/10/24 06:56:26;;;;;;;0.60;0.50;;;;;;;3.34;96.47;102002.63;5055274;28;20197;-73
2021/10/24 06:59:12;;;;;;;0.60;0.60;;;;;;;3.46;97.00;102002.63;5036755;28;20685;-73
2021/10/24 07:02:03;;;;;;;0.60;0.60;;;;;;;3.51;96.50;102000.03;5060413;28;20190;-73
2021/10/24 07:04:50;;;;;;;1.25;1.15;;;;;;;3.74;96.66;102000.84;5042483;28;20535;-72
2021/10/24 07:07:23;;;;;;;0.60;0.60;;;;;;;3.73;95.26;101993.16;5038687;28;20210;-72
2021/10/24 07:10:07;;;;;;;0.90;0.90;;;;;;;3.86;95.33;101997.38;5054786;28;20715;-73
2021/10/24 07:12:35;;;;;;;0.60;0.60;;;;;;;3.83;95.63;101997.41;5056811;28;20224;-73
2021/10/24 07:15:03;;;;;;;0.60;0.60;;;;;;;3.71;95.11;102003.41;5054027;28;20304;-73
2021/10/24 07:17:30;;;;;;;0.60;0.60;;;;;;;3.70;95.67;102003.41;5071152;28;20193;-72
2021/10/24 07:19:59;;;;;;;0.60;0.57;;;;;;;3.74;95.28;102000.00;5070976;28;20194;-73
2021/10/24 07:22:29;;;;;;;0.65;0.65;;;;;;;3.90;95.08;102003.38;5038416;28;20209;-73
2021/10/24 07:24:59;;;;;;;0.60;0.60;;;;;;;4.10;93.84;102001.59;5057123;28;20189;-73
2021/10/24 07:27:31;;;;;;;0.60;0.60;;;;;;;4.31;92.71;101995.50;5054550;28;20217;-73
2021/10/24 07:30:01;;;;;;;0.60;0.60;;;;;;;4.41;91.21;101996.28;5087724;28;20212;-73
2021/10/24 07:32:30;;;;;;;0.60;0.60;;;;;;;4.48;92.28;101995.41;5053060;28;20189;-73
2021/10/24 07:35:24;;;;;;;0.60;0.60;;;;;;;4.56;91.13;101987.66;5036376;28;20237;-71
2021/10/24 07:37:51;;;;;;;0.60;0.60;;;;;;;4.70;90.14;101991.00;5070676;28;20210;-72
2021/10/24 07:40:21;;;;;;;0.60;0.60;;;;;;;4.91;89.40;101995.16;5086897;28;20235;-72
2021/10/24 07:42:49;;;;;;;0.63;0.60;;;;;;;4.89;89.79;101986.56;5070500;28;20210;-72
2021/10/24 07:45:17;;;;;;;0.60;0.52;;;;;;;4.84;89.50;101991.75;5053623;28;20182;-72
2021/10/24 07:47:45;;;;;;;0.60;0.60;;;;;;;4.89;88.87;101990.00;5052909;28;20312;-72
2021/10/24 07:50:12;;;;;;;0.60;0.50;;;;;;;5.12;87.82;101988.97;5069769;28;20193;-72
2021/10/24 07:52:46;;;;;;;0.60;0.60;;;;;;;5.15;87.88;101989.81;5036734;28;20215;-72
2021/10/24 07:55:20;;;;;;;0.60;0.57;;;;;;;5.24;87.49;101975.13;5053957;28;20206;-71
2021/10/24 07:57:47;;;;;;;0.60;0.60;;;;;;;5.13;88.88;101977.81;5053825;28;20182;-72
2021/10/24 08:00:15;;;;;;;0.60;0.60;;;;;;;5.43;86.75;101976.66;5070811;28;20598;-72
2021/10/24 08:02:44;;;;;;;0.60;0.60;;;;;;;5.61;85.61;101973.09;5053190;28;20186;-72
2021/10/24 08:05:14;;;;;;;0.60;0.60;;;;;;;5.48;87.31;101966.34;5070170;28;20200;-72
2021/10/24 08:07:43;;;;;;;0.60;0.60;;;;;;;5.49;87.83;101962.91;5069796;28;20467;-72
2021/10/24 08:10:15;;;;;;;0.60;0.60;;;;;;;5.61;87.51;101967.06;5086580;28;20228;-72
2021/10/24 08:12:44;;;;;;;0.60;0.60;;;;;;;5.69;86.99;101966.13;5070427;28;20186;-72
2021/10/24 08:15:13;;;;;;;0.60;0.60;;;;;;;5.72;86.74;101960.06;5069580;28;20202;-72
2021/10/24 08:17:42;;;;;;;0.63;0.63;;;;;;;6.08;83.63;101953.66;5053040;28;20226;-72
2021/10/24 08:20:28;;;;;;;0.70;0.70;;;;;;;6.25;84.16;101957.72;5054243;28;20443;-72
2021/10/24 08:22:55;;;;;;;0.60;0.60;;;;;;;6.33;83.26;101961.91;5052445;28;20215;-72
2021/10/24 08:25:24;;;;;;;0.70;0.63;;;;;;;6.38;84.22;101956.69;5053312;28;20443;-72
2021/10/24 08:27:53;;;;;;;0.60;0.50;;;;;;;6.48;81.45;101955.69;5052268;28;20447;-72
2021/10/24 08:30:38;;;;;;;0.60;0.60;;;;;;;6.61;82.98;101954.66;5067465;28;20420;-72
2021/10/24 08:33:28;;;;;;;0.60;0.60;;;;;;;6.81;81.66;101951.75;5069347;28;20459;-72
2021/10/24 08:35:56;;;;;;;0.70;0.60;;;;;;;7.00;79.90;101948.84;5069399;28;20458;-72
2021/10/24 08:38:23;;;;;;;0.70;0.60;;;;;;;6.97;80.81;101952.34;5053580;28;20466;-72
2021/10/24 08:40:52;;;;;;;0.60;0.60;;;;;;;7.17;79.05;101943.41;5054250;28;20409;-72
2021/10/24 08:43:27;;;;;;;0.60;0.60;;;;;;;7.36;80.35;101949.09;5068824;28;20515;-72
2021/10/24 08:45:55;;;;;;;0.70;0.60;;;;;;;7.39;77.99;101941.28;5069012;28;20433;-73
2021/10/24 08:48:22;;;;;;;2.30;2.10;;;;;;;7.69;77.23;101942.44;5053903;28;20432;-72
2021/10/24 08:50:50;;;;;;;3.90;1.03;;;;;;;7.89;77.87;101947.22;5066039;28;21019;-72
2021/10/24 08:53:23;;;;;;;0.90;0.90;;;;;;;7.98;76.68;101933.25;5052889;28;20470;-72
2021/10/24 08:55:51;;;;;;;0.70;0.60;;;;;;;8.23;75.52;101938.75;5052095;28;20469;-73
2021/10/24 08:58:19;;;;;;;0.70;0.60;;;;;;;8.38;74.41;101928.91;5053656;28;20514;-73
2021/10/24 09:00:47;;;;;;;1.17;1.07;;;;;;;8.58;77.11;101922.47;5053396;28;20421;-73
2021/10/24 09:03:16;;;;;;;0.70;0.70;;;;;;;8.80;75.67;101920.22;5050974;28;20476;-72
2021/10/24 09:05:45;;;;;;;1.10;1.00;;;;;;;8.88;73.05;101923.44;5052261;28;20445;-72
2021/10/24 09:08:15;;;;;;;0.70;0.60;;;;;;;9.06;74.43;101922.13;5052949;28;20452;-72
2021/10/24 09:10:48;;;;;;;0.80;0.80;;;;;;;9.10;72.80;101918.56;5068118;28;20792;-72
2021/10/24 09:13:19;;;;;;;0.70;0.60;;;;;;;9.40;75.18;101908.28;5052695;28;20467;-72
2021/10/24 09:15:54;;;;;;;0.70;0.60;;;;;;;9.62;71.70;101904.19;5068422;28;20558;-73
2021/10/24 09:18:24;;;;;;;0.70;0.70;;;;;;;9.51;70.59;101910.59;5051903;28;20436;-73
2021/10/24 09:20:53;;;;;;;0.73;0.70;;;;;;;9.55;70.91;101905.25;5068793;28;20375;-73
2021/10/24 09:23:21;;;;;;;0.80;0.70;;;;;;;9.86;70.13;101901.78;5068208;28;20474;-73
2021/10/24 09:25:54;;;;;;;0.70;0.60;;;;;;;9.83;69.12;101894.13;5032779;28;20407;-73
2021/10/24 09:28:24;;;;;;;1.53;1.37;;;;;;;9.80;67.62;101895.06;5051607;28;20489;-72
2021/10/24 09:31:04;;;;;;;0.80;0.80;;;;;;;10.19;69.72;101894.75;5065332;28;20404;-72
2021/10/24 09:33:45;;;;;;;0.70;0.60;;;;;;;10.11;68.92;101894.13;5065175;28;20596;-74
2021/10/24 09:36:13;;;;;;;0.80;0.70;;;;;;;10.30;66.44;101890.09;5051430;28;20480;-72
2021/10/24 09:39:07;;;;;;;0.90;0.70;;;;;;;10.46;66.17;101882.69;5052538;28;20446;-73
2021/10/24 09:41:35;;;;;;;0.70;0.70;;;;;;;10.87;66.13;101875.25;5053293;28;20462;-71
2021/10/24 09:44:14;;;;;;;0.80;0.70;;;;;;;10.73;66.11;101877.50;5067203;28;20501;-72
2021/10/24 09:46:49;;;;;;;1.00;1.00;;;;;;;10.58;67.56;101880.56;5052475;28;20448;-72
2021/10/24 09:49:18;;;;;;;0.70;0.70;;;;;;;10.69;65.17;101868.09;5051210;28;20422;-72
2021/10/24 09:51:46;;;;;;;0.70;0.60;;;;;;;10.66;65.52;101876.00;5051940;28;20426;-72
2021/10/24 09:54:19;;;;;;;0.73;0.70;;;;;;;10.61;64.40;101862.31;5068073;28;20513;-73
2021/10/24 09:56:47;;;;;;;0.70;0.50;;;;;;;10.79;68.65;101864.28;5068183;28;20470;-72
2021/10/24 09:59:17;;;;;;;0.70;0.60;;;;;;;10.86;66.35;101859.75;5067589;28;20411;-72
2021/10/24 10:01:46;;;;;;;0.70;0.60;;;;;;;10.81;64.14;101848.66;5050664;28;20411;-74
2021/10/24 10:04:14;;;;;;;0.77;0.73;;;;;;;11.06;64.72;101846.88;5051979;28;20447;-71
2021/10/24 10:06:43;;;;;;;0.80;0.70;;;;;;;11.56;63.86;101853.75;5053080;28;20416;-71
2021/10/24 10:09:12;;;;;;;0.70;0.67;;;;;;;11.28;63.64;101839.19;5053423;28;20455;-72
2021/10/24 10:11:45;;;;;;;0.87;0.87;;;;;;;11.16;61.42;101835.25;5051574;28;20403;-72
2021/10/24 10:14:17;;;;;;;0.80;0.70;;;;;;;11.52;61.60;101836.59;5067864;28;20464;-73
2021/10/24 10:16:52;;;;;;;0.87;0.77;;;;;;;11.52;62.52;101829.63;5054398;28;20463;-74
2021/10/24 10:19:29;;;;;;;0.83;0.83;;;;;;;11.83;61.65;101830.19;5056262;28;20479;-74
2021/10/24 10:21:56;;;;;;;0.73;0.63;;;;;;;11.62;63.86;101824.94;5055138;28;20410;-73
2021/10/24 10:24:43;;;;;;;1.53;1.43;;;;;;;12.22;60.67;101820.88;5052549;28;20906;-73
2021/10/24 10:27:43;;;;;;;0.70;0.60;;;;;;;12.15;61.79;101819.41;5040884;28;20447;-74
2021/10/24 10:30:32;;;;;;;0.90;0.90;;;;;;;12.00;60.50;101818.28;5015890;28;20436;-73
2021/10/24 10:33:04;;;;;;;0.70;0.60;;;;;;;11.84;59.86;101811.94;5014292;28;20450;-74
2021/10/24 10:35:51;;;;;;;1.27;0.90;;;;;;;12.41;62.42;101804.47;5046382;28;20438;-74
2021/10/24 10:38:30;;;;;;;0.80;0.70;;;;;;;12.26;60.28;101805.97;5057404;28;20766;-74
2021/10/24 10:40:57;;;;;;;0.70;0.60;;;;;;;12.72;58.73;101805.78;5053365;28;20448;-73
2021/10/24 10:43:24;;;;;;;0.80;0.70;;;;;;;12.76;59.09;101805.56;5071058;28;20452;-73
2021/10/24 10:45:56;;;;;;;1.00;0.80;;;;;;;12.78;58.23;101801.16;5054747;28;20489;-72
2021/10/24 10:48:27;;;;;;;0.80;0.70;;;;;;;13.07;58.60;101807.69;5056924;28;20447;-74
2021/10/24 10:51:00;;;;;;;0.70;0.60;;;;;;;12.78;60.19;101800.31;5055610;28;20456;-72
2021/10/24 10:53:53;;;;;;;0.70;0.60;;;;;;;13.02;58.35;101801.84;5055998;28;20555;-72
2021/10/24 10:56:23;;;;;;;0.80;0.70;;;;;;;12.86;57.04;101798.19;5042022;28;20493;-72
2021/10/24 10:58:52;;;;;;;0.70;0.63;;;;;;;12.92;59.43;101794.50;5039325;28;20445;-73
2021/10/24 11:01:24;;;;;;;1.03;0.90;;;;;;;13.14;57.41;101797.00;5053971;28;20467;-71
2021/10/24 11:03:53;;;;;;;1.07;0.97;;;;;;;13.13;55.68;101779.66;5070924;28;20954;-72
2021/10/24 11:06:50;;;;;;;0.80;0.70;;;;;;;13.37;56.86;101778.56;5061174;28;20495;-72
2021/10/24 11:09:52;;;;;;;0.80;0.80;;;;;;;13.46;56.54;101770.31;5051457;28;20463;-73
2021/10/24 11:12:47;;;;;;;0.70;0.67;;;;;;;13.58;56.42;101768.06;5073313;28;20444;-72
2021/10/24 11:15:25;;;;;;;0.70;0.60;;;;;;;13.82;56.81;101769.50;5057036;28;20490;-71
2021/10/24 11:17:54;;;;;;;0.70;0.60;;;;;;;13.48;57.02;101776.31;5054034;28;20442;-71
2021/10/24 11:20:38;;;;;;;0.70;0.60;;;;;;;13.50;55.11;101758.00;5071620;28;20454;-72
2021/10/24 11:23:15;;;;;;;0.70;0.60;;;;;;;13.76;58.30;101758.50;5053575;28;20512;-71
2021/10/24 11:25:50;;;;;;;0.80;0.70;;;;;;;14.15;56.83;101750.50;5054200;28;20429;-72
2021/10/24 11:28:20;;;;;;;0.70;0.60;;;;;;;13.83;52.90;101745.09;5051079;28;20964;-71
2021/10/24 11:31:09;;;;;;;0.70;0.70;;;;;;;13.66;54.15;101739.84;5052754;28;20425;-72
2021/10/24 11:33:48;;;;;;;0.80;0.80;;;;;;;13.96;55.65;101739.28;5070024;28;20479;-71
2021/10/24 11:36:22;;;;;;;1.17;1.07;;;;;;;13.85;55.24;101734.59;5050531;28;20487;-71
2021/10/24 11:38:54;;;;;;;0.70;0.60;;;;;;;13.76;54.23;101729.81;5052736;28;20512;-71
2021/10/24 11:41:22;;;;;;;0.70;0.60;;;;;;;13.89;55.38;101734.38;5053452;28;20429;-70
2021/10/24 11:44:02;;;;;;;0.80;0.70;;;;;;;13.85;54.36;101727.59;5053930;28;20501;-71
2021/10/24 11:46:29;;;;;;;0.70;0.63;;;;;;;14.09;52.39;101719.47;5052774;28;20416;-73
2021/10/24 11:49:03;;;;;;;0.70;0.60;;;;;;;14.19;53.46;101728.53;5072610;28;20428;-73
2021/10/24 11:51:30;;;;;;;0.80;0.80;;;;;;;14.28;54.81;101728.06;5054148;28;20440;-72
2021/10/24 11:53:57;;;;;;;0.70;0.60;;;;;;;14.43;56.50;101733.41;5054371;28;20468;-71
2021/10/24 12:01:34;;;;;;;0.70;0.70;;;;;;;14.68;51.94;101723.44;5053624;28;20428;-71
2021/10/24 12:04:05;;;;;;;0.70;0.70;;;;;;;14.70;50.00;101720.72;5066209;28;20432;-71